sensor_id;sensor_type;location;lat;lon;timestamp;pressure;altitude;pressure_sealevel;temperature;humidity
56928;BME280;60850;52.502;13.426;2023-02-26T06:27:49;101288.22;;;2.64;100.00
56928;BME280;60850;52.502;13.426;2023-02-26T06:30:17;101287.75;;;2.94;100.00
56928;BME280;60850;52.502;13.426;2023-02-26T06:32:44;101284.25;;;2.94;100.00
56928;BME280;60850;52.502;13.426;2023-02-26T06:35:12;101292.56;;;3.27;100.00
56928;BME280;60850;52.502;13.426;2023-02-26T06:37:39;101293.47;;;3.29;100.00
56928;BME280;60850;52.502;13.426;2023-02-26T06:40:07;101288.63;;;2.95;100.00
56928;BME280;60850;52.502;13.426;2023-02-26T06:42:35;101299.75;;;2.74;100.00
56928;BME280;60850;52.502;13.426;2023-02-26T06:45:04;101302.16;;;2.57;100.00
56928;BME280;60850;52.502;13.426;2023-02-26T06:47:31;101300.72;;;3.49;100.00
56928;BME280;60850;52.502;13.426;2023-02-26T06:49:58;101290.69;;;5.39;100.00
56928;BME280;60850;52.502;13.426;2023-02-26T06:52:25;101288.16;;;6.92;94.81
56928;BME280;60850;52.502;13.426;2023-02-26T06:54:52;101302.31;;;8.47;81.99
56928;BME280;60850;52.502;13.426;2023-02-26T06:57:18;101293.56;;;9.88;65.42
56928;BME280;60850;52.502;13.426;2023-02-26T06:59:45;101313.94;;;10.48;57.76
56928;BME280;60850;52.502;13.426;2023-02-26T07:02:15;101321.78;;;9.99;55.50
56928;BME280;60850;52.502;13.426;2023-02-26T07:04:43;101330.31;;;8.85;60.43
56928;BME280;60850;52.502;13.426;2023-02-26T07:07:10;101332.63;;;9.16;63.19
56928;BME280;60850;52.502;13.426;2023-02-26T07:09:38;101338.88;;;9.84;59.92
56928;BME280;60850;52.502;13.426;2023-02-26T07:12:05;101338.91;;;9.82;55.25
56928;BME280;60850;52.502;13.426;2023-02-26T07:14:33;101349.88;;;10.21;55.63
56928;BME280;60850;52.502;13.426;2023-02-26T07:17:00;101350.81;;;8.71;56.97
56928;BME280;60850;52.502;13.426;2023-02-26T07:19:29;101365.72;;;7.57;64.60
56928;BME280;60850;52.502;13.426;2023-02-26T07:21:56;101371.19;;;6.82;70.37
56928;BME280;60850;52.502;13.426;2023-02-26T07:24:23;101374.69;;;5.94;78.94
56928;BME280;60850;52.502;13.426;2023-02-26T07:26:50;101371.19;;;6.31;81.23
56928;BME280;60850;52.502;13.426;2023-02-26T07:29:17;101382.69;;;6.44;82.48
56928;BME280;60850;52.502;13.426;2023-02-26T07:31:44;101387.97;;;6.23;81.50
56928;BME280;60850;52.502;13.426;2023-02-26T07:34:11;101389.59;;;5.84;85.27
56928;BME280;60850;52.502;13.426;2023-02-26T07:36:39;101400.03;;;5.46;87.85
56928;BME280;60850;52.502;13.426;2023-02-26T07:39:06;101407.63;;;4.92;90.00
56928;BME280;60850;52.502;13.426;2023-02-26T07:41:33;101407.50;;;4.77;92.02
56928;BME280;60850;52.502;13.426;2023-02-26T07:44:00;101409.03;;;4.48;94.16
56928;BME280;60850;52.502;13.426;2023-02-26T07:46:27;101416.34;;;4.82;96.13
56928;BME280;60850;52.502;13.426;2023-02-26T07:48:54;101420.03;;;5.04;93.21
56928;BME280;60850;52.502;13.426;2023-02-26T07:51:21;101423.50;;;4.94;92.38
56928;BME280;60850;52.502;13.426;2023-02-26T07:53:49;101421.06;;;5.26;91.03
56928;BME280;60850;52.502;13.426;2023-02-26T07:56:16;101423.28;;;6.34;83.30
56928;BME280;60850;52.502;13.426;2023-02-26T07:58:43;101423.31;;;7.03;79.39
56928;BME280;60850;52.502;13.426;2023-02-26T08:01:10;101420.84;;;8.68;66.62
56928;BME280;60850;52.502;13.426;2023-02-26T08:03:37;101423.34;;;9.71;57.55
56928;BME280;60850;52.502;13.426;2023-02-26T08:06:05;101433.47;;;10.76;53.54
56928;BME280;60850;52.502;13.426;2023-02-26T08:08:33;101424.47;;;10.26;52.81
56928;BME280;60850;52.502;13.426;2023-02-26T08:11:01;101436.75;;;9.67;52.99
56928;BME280;60850;52.502;13.426;2023-02-26T08:13:29;101445.84;;;8.38;57.73
56928;BME280;60850;52.502;13.426;2023-02-26T08:15:55;101445.22;;;7.75;61.37
56928;BME280;60850;52.502;13.426;2023-02-26T08:18:22;101443.03;;;8.63;59.48
56928;BME280;60850;52.502;13.426;2023-02-26T08:20:50;101447.59;;;10.22;52.11
56928;BME280;60850;52.502;13.426;2023-02-26T08:23:17;101453.94;;;11.26;50.08
56928;BME280;60850;52.502;13.426;2023-02-26T08:25:44;101451.97;;;11.37;47.12
56928;BME280;60850;52.502;13.426;2023-02-26T08:28:13;101459.13;;;11.83;44.89
56928;BME280;60850;52.502;13.426;2023-02-26T08:30:40;101465.44;;;12.62;43.37
56928;BME280;60850;52.502;13.426;2023-02-26T08:33:07;101468.25;;;12.16;44.47
56928;BME280;60850;52.502;13.426;2023-02-26T08:35:34;101465.84;;;13.85;42.64
56928;BME280;60850;52.502;13.426;2023-02-26T08:38:01;101467.06;;;14.92;38.74
56928;BME280;60850;52.502;13.426;2023-02-26T08:40:27;101476.91;;;15.96;36.60
56928;BME280;60850;52.502;13.426;2023-02-26T08:42:56;101478.72;;;15.70;36.45
56928;BME280;60850;52.502;13.426;2023-02-26T08:45:24;101475.59;;;16.76;34.63
56928;BME280;60850;52.502;13.426;2023-02-26T08:47:51;101470.34;;;16.73;33.86
56928;BME280;60850;52.502;13.426;2023-02-26T08:50:20;101487.69;;;17.10;33.24
56928;BME280;60850;52.502;13.426;2023-02-26T08:52:47;101484.97;;;18.13;32.30
56928;BME280;60850;52.502;13.426;2023-02-26T08:55:14;101488.53;;;18.14;31.63
56928;BME280;60850;52.502;13.426;2023-02-26T08:57:41;101499.03;;;17.38;30.75
56928;BME280;60850;52.502;13.426;2023-02-26T09:00:09;101498.34;;;18.35;30.23
56928;BME280;60850;52.502;13.426;2023-02-26T09:02:37;101494.88;;;18.31;30.44
56928;BME280;60850;52.502;13.426;2023-02-26T09:05:05;101498.06;;;17.81;30.74
56928;BME280;60850;52.502;13.426;2023-02-26T09:07:32;101497.41;;;17.14;30.97
56928;BME280;60850;52.502;13.426;2023-02-26T09:09:59;101506.66;;;17.28;30.80
56928;BME280;60850;52.502;13.426;2023-02-26T09:12:26;101507.72;;;17.87;30.14
56928;BME280;60850;52.502;13.426;2023-02-26T09:14:53;101515.88;;;16.79;31.47
56928;BME280;60850;52.502;13.426;2023-02-26T09:17:20;101527.28;;;16.86;30.92
56928;BME280;60850;52.502;13.426;2023-02-26T09:19:48;101526.84;;;15.51;32.32
56928;BME280;60850;52.502;13.426;2023-02-26T09:22:15;101531.16;;;12.34;36.36
56928;BME280;60850;52.502;13.426;2023-02-26T09:24:42;101532.09;;;10.80;41.25
56928;BME280;60850;52.502;13.426;2023-02-26T09:27:09;101541.72;;;10.26;48.11
56928;BME280;60850;52.502;13.426;2023-02-26T09:29:36;101534.63;;;9.37;48.82
56928;BME280;60850;52.502;13.426;2023-02-26T09:32:03;101532.41;;;8.84;57.87
56928;BME280;60850;52.502;13.426;2023-02-26T09:34:32;101555.53;;;8.68;56.34
56928;BME280;60850;52.502;13.426;2023-02-26T09:37:01;101567.16;;;8.45;67.33
56928;BME280;60850;52.502;13.426;2023-02-26T09:39:29;101575.22;;;8.10;60.34
56928;BME280;60850;52.502;13.426;2023-02-26T09:41:59;101577.09;;;7.53;65.95
56928;BME280;60850;52.502;13.426;2023-02-26T09:44:31;101567.38;;;7.29;62.61
56928;BME280;60850;52.502;13.426;2023-02-26T09:47:02;101571.81;;;7.13;66.18
56928;BME280;60850;52.502;13.426;2023-02-26T09:49:46;101574.38;;;6.91;69.48
56928;BME280;60850;52.502;13.426;2023-02-26T09:52:17;101590.25;;;6.63;73.00
56928;BME280;60850;52.502;13.426;2023-02-26T09:54:47;101607.75;;;6.29;68.38
56928;BME280;60850;52.502;13.426;2023-02-26T09:57:26;101590.69;;;5.78;70.35
56928;BME280;60850;52.502;13.426;2023-02-26T09:59:55;101596.81;;;5.72;72.11
56928;BME280;60850;52.502;13.426;2023-02-26T10:02:31;101601.13;;;5.60;69.58
56928;BME280;60850;52.502;13.426;2023-02-26T10:05:07;101600.91;;;5.35;65.69
56928;BME280;60850;52.502;13.426;2023-02-26T10:07:42;101605.34;;;5.36;65.49
56928;BME280;60850;52.502;13.426;2023-02-26T10:10:19;101609.88;;;5.56;66.50
56928;BME280;60850;52.502;13.426;2023-02-26T10:12:49;101614.63;;;5.93;69.14
56928;BME280;60850;52.502;13.426;2023-02-26T10:15:20;101606.78;;;6.12;67.59
56928;BME280;60850;52.502;13.426;2023-02-26T10:17:59;101616.44;;;6.02;64.44
56928;BME280;60850;52.502;13.426;2023-02-26T10:20:30;101621.69;;;5.99;65.48
56928;BME280;60850;52.502;13.426;2023-02-26T10:23:04;101623.50;;;6.01;62.89
56928;BME280;60850;52.502;13.426;2023-02-26T10:25:38;101619.03;;;5.97;59.03
56928;BME280;60850;52.502;13.426;2023-02-26T10:28:19;101635.25;;;5.31;60.67
56928;BME280;60850;52.502;13.426;2023-02-26T10:30:53;101621.38;;;5.58;64.79
56928;BME280;60850;52.502;13.426;2023-02-26T10:33:32;101618.81;;;5.70;62.14
56928;BME280;60850;52.502;13.426;2023-02-26T10:36:10;101609.94;;;5.63;63.61
56928;BME280;60850;52.502;13.426;2023-02-26T10:38:42;101623.38;;;5.89;65.11
56928;BME280;60850;52.502;13.426;2023-02-26T10:41:15;101630.66;;;6.19;61.71
56928;BME280;60850;52.502;13.426;2023-02-26T10:43:47;101626.22;;;6.17;57.16
56928;BME280;60850;52.502;13.426;2023-02-26T10:46:21;101635.09;;;6.22;57.76
56928;BME280;60850;52.502;13.426;2023-02-26T10:49:07;101643.00;;;6.14;56.85
56928;BME280;60850;52.502;13.426;2023-02-26T10:51:39;101644.81;;;6.24;57.72
56928;BME280;60850;52.502;13.426;2023-02-26T10:54:14;101644.81;;;6.23;57.82
56928;BME280;60850;52.502;13.426;2023-02-26T10:56:42;101656.28;;;6.22;57.03
56928;BME280;60850;52.502;13.426;2023-02-26T10:59:09;101653.53;;;6.07;56.66
56928;BME280;60850;52.502;13.426;2023-02-26T11:01:36;101655.84;;;5.65;52.86
56928;BME280;60850;52.502;13.426;2023-02-26T11:04:06;101654.91;;;5.59;52.51
56928;BME280;60850;52.502;13.426;2023-02-26T11:06:37;101657.72;;;5.80;52.64
56928;BME280;60850;52.502;13.426;2023-02-26T11:11:45;101658.19;;;6.50;51.10
56928;BME280;60850;52.502;13.426;2023-02-26T11:14:14;101661.66;;;6.37;50.01
56928;BME280;60850;52.502;13.426;2023-02-26T11:16:45;101663.22;;;6.06;51.06
56928;BME280;60850;52.502;13.426;2023-02-26T11:19:13;101662.16;;;5.86;50.74
56928;BME280;60850;52.502;13.426;2023-02-26T11:21:43;101666.47;;;5.74;50.20
56928;BME280;60850;52.502;13.426;2023-02-26T11:24:14;101677.28;;;5.97;51.22
56928;BME280;60850;52.502;13.426;2023-02-26T11:26:47;101660.25;;;5.65;49.46
56928;BME280;60850;52.502;13.426;2023-02-26T11:29:18;101676.88;;;5.53;53.76
56928;BME280;60850;52.502;13.426;2023-02-26T11:31:47;101686.38;;;5.31;51.51
56928;BME280;60850;52.502;13.426;2023-02-26T11:34:15;101660.75;;;5.26;51.55
56928;BME280;60850;52.502;13.426;2023-02-26T11:36:43;101690.72;;;5.28;51.77
56928;BME280;60850;52.502;13.426;2023-02-26T11:39:14;101686.22;;;5.16;50.39
56928;BME280;60850;52.502;13.426;2023-02-26T11:41:45;101692.31;;;5.10;51.00
56928;BME280;60850;52.502;13.426;2023-02-26T11:44:14;101691.47;;;5.14;50.08
56928;BME280;60850;52.502;13.426;2023-02-26T11:46:45;101686.38;;;5.31;53.56
56928;BME280;60850;52.502;13.426;2023-02-26T11:49:16;101694.38;;;5.42;52.89
56928;BME280;60850;52.502;13.426;2023-02-26T11:51:46;101701.50;;;5.47;53.01
56928;BME280;60850;52.502;13.426;2023-02-26T11:54:20;101704.00;;;5.35;53.74
56928;BME280;60850;52.502;13.426;2023-02-26T11:56:49;101700.16;;;5.01;50.80
56928;BME280;60850;52.502;13.426;2023-02-26T11:59:19;101706.25;;;4.99;52.71
56928;BME280;60850;52.502;13.426;2023-02-26T12:01:47;101693.97;;;5.01;53.42
56928;BME280;60850;52.502;13.426;2023-02-26T12:04:18;101696.75;;;5.14;55.03
56928;BME280;60850;52.502;13.426;2023-02-26T12:06:45;101700.47;;;5.30;55.42
56928;BME280;60850;52.502;13.426;2023-02-26T12:09:15;101697.75;;;5.26;54.30
56928;BME280;60850;52.502;13.426;2023-02-26T12:12:17;101705.69;;;5.27;56.48
56928;BME280;60850;52.502;13.426;2023-02-26T12:15:05;101708.00;;;4.96;59.27
56928;BME280;60850;52.502;13.426;2023-02-26T12:17:52;101701.69;;;4.84;59.43
56928;BME280;60850;52.502;13.426;2023-02-26T12:20:26;101700.50;;;4.59;58.28
56928;BME280;60850;52.502;13.426;2023-02-26T12:23:20;101709.44;;;4.70;59.49
56928;BME280;60850;52.502;13.426;2023-02-26T12:25:58;101702.72;;;4.96;59.25
56928;BME280;60850;52.502;13.426;2023-02-26T12:31:54;101702.81;;;5.06;56.66
56928;BME280;60850;52.502;13.426;2023-02-26T12:34:45;101716.00;;;5.01;54.05
56928;BME280;60850;52.502;13.426;2023-02-26T12:37:39;101713.06;;;4.78;56.94
56928;BME280;60850;52.502;13.426;2023-02-26T12:40:24;101721.56;;;4.56;56.94
56928;BME280;60850;52.502;13.426;2023-02-26T12:43:03;101718.94;;;3.97;54.70
56928;BME280;60850;52.502;13.426;2023-02-26T12:45:41;101715.63;;;4.10;53.56
56928;BME280;60850;52.502;13.426;2023-02-26T12:48:32;101713.03;;;4.14;53.89
56928;BME280;60850;52.502;13.426;2023-02-26T12:51:10;101720.59;;;4.49;55.51
56928;BME280;60850;52.502;13.426;2023-02-26T12:54:08;101711.19;;;4.68;54.95
56928;BME280;60850;52.502;13.426;2023-02-26T12:56:55;101714.97;;;4.88;55.63
56928;BME280;60850;52.502;13.426;2023-02-26T12:59:28;101717.50;;;4.81;53.87
56928;BME280;60850;52.502;13.426;2023-02-26T13:02:23;101713.53;;;4.47;56.17
56928;BME280;60850;52.502;13.426;2023-02-26T13:05:03;101723.88;;;4.33;54.20
56928;BME280;60850;52.502;13.426;2023-02-26T13:07:49;101730.63;;;4.16;54.25
56928;BME280;60850;52.502;13.426;2023-02-26T13:10:27;101725.47;;;3.67;54.18
56928;BME280;60850;52.502;13.426;2023-02-26T13:13:10;101735.44;;;3.85;56.81
56928;BME280;60850;52.502;13.426;2023-02-26T13:15:53;101739.53;;;4.22;54.87
56928;BME280;60850;52.502;13.426;2023-02-26T13:18:33;101738.25;;;4.53;53.45
56928;BME280;60850;52.502;13.426;2023-02-26T13:21:07;101740.22;;;4.68;54.08
56928;BME280;60850;52.502;13.426;2023-02-26T13:23:41;101747.47;;;4.83;55.84
56928;BME280;60850;52.502;13.426;2023-02-26T13:26:13;101745.22;;;4.48;55.83
56928;BME280;60850;52.502;13.426;2023-02-26T13:28:43;101749.38;;;4.31;56.69
56928;BME280;60850;52.502;13.426;2023-02-26T13:31:15;101748.53;;;4.33;56.93
56928;BME280;60850;52.502;13.426;2023-02-26T13:33:43;101749.25;;;4.23;57.50
56928;BME280;60850;52.502;13.426;2023-02-26T13:36:14;101744.72;;;4.14;57.62
56928;BME280;60850;52.502;13.426;2023-02-26T13:38:52;101763.94;;;4.06;56.88
56928;BME280;60850;52.502;13.426;2023-02-26T13:41:34;101757.34;;;4.34;57.94
56928;BME280;60850;52.502;13.426;2023-02-26T13:44:14;101754.00;;;4.47;57.22
56928;BME280;60850;52.502;13.426;2023-02-26T13:49:55;101756.66;;;4.49;51.73
56928;BME280;60850;52.502;13.426;2023-02-26T13:52:30;101754.69;;;4.32;52.56
56928;BME280;60850;52.502;13.426;2023-02-26T13:54:57;101761.97;;;3.94;54.60
56928;BME280;60850;52.502;13.426;2023-02-26T13:57:34;101766.19;;;3.84;56.16
56928;BME280;60850;52.502;13.426;2023-02-26T14:00:08;101770.31;;;3.67;55.42
56928;BME280;60850;52.502;13.426;2023-02-26T14:02:48;101757.75;;;3.54;57.47
56928;BME280;60850;52.502;13.426;2023-02-26T14:05:53;101770.94;;;3.54;56.89
56928;BME280;60850;52.502;13.426;2023-02-26T14:08:42;101771.22;;;3.69;57.37
56928;BME280;60850;52.502;13.426;2023-02-26T14:14:15;101773.22;;;3.84;54.40
56928;BME280;60850;52.502;13.426;2023-02-26T14:16:51;101776.84;;;3.89;53.18
56928;BME280;60850;52.502;13.426;2023-02-26T14:19:27;101783.16;;;4.00;51.39
56928;BME280;60850;52.502;13.426;2023-02-26T14:21:56;101779.75;;;4.04;52.45
56928;BME280;60850;52.502;13.426;2023-02-26T14:24:37;101778.22;;;4.20;54.02
56928;BME280;60850;52.502;13.426;2023-02-26T14:27:21;101791.63;;;4.32;53.25
56928;BME280;60850;52.502;13.426;2023-02-26T14:30:02;101776.69;;;4.34;52.22
56928;BME280;60850;52.502;13.426;2023-02-26T14:32:34;101780.31;;;4.41;52.73
56928;BME280;60850;52.502;13.426;2023-02-26T14:35:05;101775.91;;;4.40;53.72
56928;BME280;60850;52.502;13.426;2023-02-26T14:37:35;101786.06;;;4.16;51.95
56928;BME280;60850;52.502;13.426;2023-02-26T14:40:11;101791.66;;;3.82;52.74
56928;BME280;60850;52.502;13.426;2023-02-26T14:42:42;101786.75;;;3.54;53.28
56928;BME280;60850;52.502;13.426;2023-02-26T14:45:22;101800.41;;;3.33;55.80
56928;BME280;60850;52.502;13.426;2023-02-26T14:47:51;101793.56;;;3.44;55.77
56928;BME280;60850;52.502;13.426;2023-02-26T14:50:20;101791.94;;;3.51;56.05
56928;BME280;60850;52.502;13.426;2023-02-26T14:53:18;101801.00;;;3.65;55.36
56928;BME280;60850;52.502;13.426;2023-02-26T14:56:01;101805.59;;;3.75;53.32
56928;BME280;60850;52.502;13.426;2023-02-26T14:58:42;101812.69;;;3.78;49.37
56928;BME280;60850;52.502;13.426;2023-02-26T15:01:27;101815.91;;;3.63;50.28
56928;BME280;60850;52.502;13.426;2023-02-26T15:07:06;101809.06;;;3.27;51.55
56928;BME280;60850;52.502;13.426;2023-02-26T15:09:48;101824.47;;;3.09;50.58
56928;BME280;60850;52.502;13.426;2023-02-26T15:12:31;101812.81;;;2.96;49.81
56928;BME280;60850;52.502;13.426;2023-02-26T15:15:15;101810.97;;;2.94;50.19
56928;BME280;60850;52.502;13.426;2023-02-26T15:17:54;101811.16;;;3.01;50.85
56928;BME280;60850;52.502;13.426;2023-02-26T15:20:32;101814.38;;;3.30;52.01
56928;BME280;60850;52.502;13.426;2023-02-26T15:23:13;101812.81;;;3.39;52.18
56928;BME280;60850;52.502;13.426;2023-02-26T15:25:46;101808.91;;;3.64;53.01
56928;BME280;60850;52.502;13.426;2023-02-26T15:28:20;101818.94;;;3.84;51.29
56928;BME280;60850;52.502;13.426;2023-02-26T15:30:49;101819.47;;;3.65;50.99
56928;BME280;60850;52.502;13.426;2023-02-26T15:33:18;101816.69;;;3.59;50.44
56928;BME280;60850;52.502;13.426;2023-02-26T15:35:47;101816.03;;;3.68;51.90
56928;BME280;60850;52.502;13.426;2023-02-26T15:38:14;101824.97;;;3.76;49.92
56928;BME280;60850;52.502;13.426;2023-02-26T15:40:41;101828.56;;;3.81;50.67
56928;BME280;60850;52.502;13.426;2023-02-26T15:43:13;101835.84;;;3.47;48.84
56928;BME280;60850;52.502;13.426;2023-02-26T15:45:45;101831.13;;;3.33;50.94
56928;BME280;60850;52.502;13.426;2023-02-26T15:48:15;101827.34;;;3.18;51.85
56928;BME280;60850;52.502;13.426;2023-02-26T15:50:44;101831.41;;;3.04;53.10
56928;BME280;60850;52.502;13.426;2023-02-26T15:53:17;101835.44;;;2.88;52.88
56928;BME280;60850;52.502;13.426;2023-02-26T15:55:49;101843.09;;;2.78;53.91
56928;BME280;60850;52.502;13.426;2023-02-26T15:58:20;101846.34;;;2.66;53.72
56928;BME280;60850;52.502;13.426;2023-02-26T16:00:53;101837.38;;;2.58;55.00
56928;BME280;60850;52.502;13.426;2023-02-26T16:03:29;101838.81;;;2.45;57.32
56928;BME280;60850;52.502;13.426;2023-02-26T16:05:57;101838.56;;;2.34;58.60
56928;BME280;60850;52.502;13.426;2023-02-26T16:08:25;101838.13;;;2.17;60.08
56928;BME280;60850;52.502;13.426;2023-02-26T16:10:53;101843.50;;;2.20;60.96
56928;BME280;60850;52.502;13.426;2023-02-26T16:13:27;101842.50;;;2.17;60.75
56928;BME280;60850;52.502;13.426;2023-02-26T16:16:00;101851.97;;;2.10;63.19
56928;BME280;60850;52.502;13.426;2023-02-26T16:18:30;101854.56;;;2.09;63.63
56928;BME280;60850;52.502;13.426;2023-02-26T16:20:59;101853.34;;;1.96;65.22
56928;BME280;60850;52.502;13.426;2023-02-26T16:23:38;101852.47;;;1.96;66.41
56928;BME280;60850;52.502;13.426;2023-02-26T16:26:09;101848.75;;;1.87;69.29
56928;BME280;60850;52.502;13.426;2023-02-26T16:28:41;101853.06;;;1.84;67.85
56928;BME280;60850;52.502;13.426;2023-02-26T16:31:16;101863.09;;;1.99;73.48
56928;BME280;60850;52.502;13.426;2023-02-26T16:33:52;101862.72;;;1.85;73.72
56928;BME280;60850;52.502;13.426;2023-02-26T16:36:19;101866.78;;;1.74;75.75
56928;BME280;60850;52.502;13.426;2023-02-26T16:38:50;101871.31;;;1.79;74.53
56928;BME280;60850;52.502;13.426;2023-02-26T16:41:23;101874.47;;;1.66;75.92
56928;BME280;60850;52.502;13.426;2023-02-26T16:43:52;101873.31;;;1.56;77.91
56928;BME280;60850;52.502;13.426;2023-02-26T16:46:31;101874.03;;;1.51;79.46
56928;BME280;60850;52.502;13.426;2023-02-26T16:49:01;101887.13;;;1.49;80.73
56928;BME280;60850;52.502;13.426;2023-02-26T16:51:31;101889.81;;;1.51;82.76
56928;BME280;60850;52.502;13.426;2023-02-26T16:54:00;101890.69;;;1.51;83.54
56928;BME280;60850;52.502;13.426;2023-02-26T16:56:31;101893.09;;;1.44;84.28
56928;BME280;60850;52.502;13.426;2023-02-26T16:59:03;101895.69;;;1.42;85.53
56928;BME280;60850;52.502;13.426;2023-02-26T17:01:37;101902.63;;;1.40;86.97
56928;BME280;60850;52.502;13.426;2023-02-26T17:04:06;101912.31;;;1.41;91.59
56928;BME280;60850;52.502;13.426;2023-02-26T17:06:35;101907.97;;;1.43;89.58
56928;BME280;60850;52.502;13.426;2023-02-26T17:09:05;101916.59;;;1.39;90.73
56928;BME280;60850;52.502;13.426;2023-02-26T17:11:37;101916.41;;;1.33;91.90
56928;BME280;60850;52.502;13.426;2023-02-26T17:14:13;101918.28;;;1.37;96.28
56928;BME280;60850;52.502;13.426;2023-02-26T17:16:45;101923.63;;;1.40;93.05
56928;BME280;60850;52.502;13.426;2023-02-26T17:19:12;101934.06;;;1.37;92.61
56928;BME280;60850;52.502;13.426;2023-02-26T17:21:43;101929.00;;;1.43;92.22
56928;BME280;60850;52.502;13.426;2023-02-26T17:24:15;101941.47;;;1.50;92.61
56928;BME280;60850;52.502;13.426;2023-02-26T17:26:43;101933.78;;;1.56;91.80
56928;BME280;60850;52.502;13.426;2023-02-26T17:29:16;101938.44;;;1.67;92.97
56928;BME280;60850;52.502;13.426;2023-02-26T17:31:46;101937.94;;;1.80;91.42
56928;BME280;60850;52.502;13.426;2023-02-26T17:34:13;101945.47;;;1.98;90.81
56928;BME280;60850;52.502;13.426;2023-02-26T17:36:40;101950.63;;;1.95;89.41
56928;BME280;60850;52.502;13.426;2023-02-26T17:39:09;101960.31;;;1.97;90.04
56928;BME280;60850;52.502;13.426;2023-02-26T17:41:37;101963.91;;;1.99;90.00
56928;BME280;60850;52.502;13.426;2023-02-26T17:44:04;101956.88;;;1.98;88.56
56928;BME280;60850;52.502;13.426;2023-02-26T17:46:31;101960.31;;;1.97;88.46
56928;BME280;60850;52.502;13.426;2023-02-26T17:49:00;101956.41;;;1.83;88.99
56928;BME280;60850;52.502;13.426;2023-02-26T17:51:27;101963.00;;;1.69;90.78
56928;BME280;60850;52.502;13.426;2023-02-26T17:53:54;101959.94;;;1.53;92.00
56928;BME280;60850;52.502;13.426;2023-02-26T17:56:24;101960.56;;;1.45;93.79
56928;BME280;60850;52.502;13.426;2023-02-26T17:58:53;101961.91;;;1.32;94.47
56928;BME280;60850;52.502;13.426;2023-02-26T18:01:20;101977.41;;;1.23;96.14
56928;BME280;60850;52.502;13.426;2023-02-26T18:03:48;101975.41;;;1.14;96.77
56928;BME280;60850;52.502;13.426;2023-02-26T18:06:16;101977.66;;;1.03;99.47
56928;BME280;60850;52.502;13.426;2023-02-26T18:08:43;101979.41;;;1.03;99.31
56928;BME280;60850;52.502;13.426;2023-02-26T18:11:14;101981.69;;;0.92;100.00
56928;BME280;60850;52.502;13.426;2023-02-26T18:13:41;101982.63;;;0.94;100.00
56928;BME280;60850;52.502;13.426;2023-02-26T18:16:14;101988.59;;;0.90;100.00
56928;BME280;60850;52.502;13.426;2023-02-26T18:18:42;101995.34;;;0.82;100.00
56928;BME280;60850;52.502;13.426;2023-02-26T18:21:09;101995.25;;;0.79;100.00
56928;BME280;60850;52.502;13.426;2023-02-26T18:23:38;101991.78;;;0.80;100.00
56928;BME280;60850;52.502;13.426;2023-02-26T18:26:05;101996.13;;;0.79;100.00
56928;BME280;60850;52.502;13.426;2023-02-26T18:28:33;101997.75;;;0.76;100.00
56928;BME280;60850;52.502;13.426;2023-02-26T18:30:59;101991.56;;;0.74;100.00
56928;BME280;60850;52.502;13.426;2023-02-26T18:33:33;101996.53;;;0.65;100.00
56928;BME280;60850;52.502;13.426;2023-02-26T18:36:02;101997.88;;;0.53;100.00
56928;BME280;60850;52.502;13.426;2023-02-26T18:38:30;101996.19;;;0.55;100.00
56928;BME280;60850;52.502;13.426;2023-02-26T18:40:58;102000.22;;;0.46;100.00
56928;BME280;60850;52.502;13.426;2023-02-26T18:43:27;102011.63;;;0.46;100.00
56928;BME280;60850;52.502;13.426;2023-02-26T18:45:54;102011.44;;;0.42;100.00
56928;BME280;60850;52.502;13.426;2023-02-26T18:48:25;102007.53;;;0.29;100.00
56928;BME280;60850;52.502;13.426;2023-02-26T18:50:52;102014.41;;;0.27;100.00
56928;BME280;60850;52.502;13.426;2023-02-26T18:53:21;102017.88;;;0.26;100.00
56928;BME280;60850;52.502;13.426;2023-02-26T18:55:50;102021.31;;;0.23;100.00
56928;BME280;60850;52.502;13.426;2023-02-26T18:58:19;102023.13;;;0.26;100.00
56928;BME280;60850;52.502;13.426;2023-02-26T19:00:46;102033.41;;;0.20;100.00
56928;BME280;60850;52.502;13.426;2023-02-26T19:03:13;102038.41;;;0.14;100.00
56928;BME280;60850;52.502;13.426;2023-02-26T19:05:40;102040.31;;;0.18;100.00
56928;BME280;60850;52.502;13.426;2023-02-26T19:08:07;102035.88;;;0.15;100.00
56928;BME280;60850;52.502;13.426;2023-02-26T19:10:35;102033.06;;;0.11;100.00
56928;BME280;60850;52.502;13.426;2023-02-26T19:13:02;102043.31;;;0.05;100.00
56928;BME280;60850;52.502;13.426;2023-02-26T19:15:31;102052.88;;;0.03;100.00
56928;BME280;60850;52.502;13.426;2023-02-26T19:17:58;102057.19;;;0.01;100.00
56928;BME280;60850;52.502;13.426;2023-02-26T19:20:25;102050.97;;;-0.02;100.00
56928;BME280;60850;52.502;13.426;2023-02-26T19:22:52;102054.19;;;-0.09;100.00
56928;BME280;60850;52.502;13.426;2023-02-26T19:25:19;102054.13;;;-0.10;100.00
56928;BME280;60850;52.502;13.426;2023-02-26T19:27:49;102054.09;;;-0.12;100.00
56928;BME280;60850;52.502;13.426;2023-02-26T19:30:18;102058.41;;;0.10;100.00
56928;BME280;60850;52.502;13.426;2023-02-26T19:32:46;102056.00;;;0.16;100.00
56928;BME280;60850;52.502;13.426;2023-02-26T19:35:13;102057.97;;;-0.01;100.00
56928;BME280;60850;52.502;13.426;2023-02-26T19:37:40;102063.63;;;-0.14;100.00
56928;BME280;60850;52.502;13.426;2023-02-26T19:40:09;102063.25;;;-0.23;100.00
56928;BME280;60850;52.502;13.426;2023-02-26T19:42:41;102057.91;;;-0.26;100.00
56928;BME280;60850;52.502;13.426;2023-02-26T19:45:08;102058.16;;;-0.20;100.00
56928;BME280;60850;52.502;13.426;2023-02-26T19:47:35;102069.38;;;-0.22;100.00
56928;BME280;60850;52.502;13.426;2023-02-26T19:50:05;102071.09;;;-0.23;100.00
56928;BME280;60850;52.502;13.426;2023-02-26T19:52:33;102065.91;;;-0.21;100.00